Time;durP1;ratioP1;P1;durP2;ratioP2;P2;SDS_P1;SDS_P2;PMS_P1;PMS_P2;Temp;Humidity;BMP_temperature;BMP_pressure;BME280_temperature;BME280_humidity;BME280_pressure;Samples;Min_cycle;Max_cycle;Signal;HPM_P1;HPM_P2
2023/04/10 00:02:26;;;;;;;;;;;4.70;99.90;;;;;;5004299;28;19925;-67
2023/04/10 00:04:54;;;;;;;;;;;4.70;99.90;;;;;;5004399;28;19988;-68
2023/04/10 00:07:20;;;;;;;;;;;4.70;99.90;;;;;;5004471;28;19992;-67
2023/04/10 00:09:47;;;;;;;;;;;4.70;99.90;;;;;;5004250;28;19921;-67
2023/04/10 00:12:14;;;;;;;;;;;4.60;99.90;;;;;;5004303;28;19944;-68
2023/04/10 00:14:41;;;;;;;;;;;4.60;99.90;;;;;;5004186;28;20332;-68
2023/04/10 00:17:07;;;;;;;;;;;4.60;99.90;;;;;;5004303;28;19989;-68
2023/04/10 00:19:34;;;;;;;;;;;4.60;99.90;;;;;;5004402;28;19984;-67
2023/04/10 00:22:02;;;;;;;;;;;4.60;99.90;;;;;;5004536;28;19921;-67
2023/04/10 00:24:29;;;;;;;;;;;4.50;99.90;;;;;;5004293;28;19969;-67
2023/04/10 00:26:56;;;;;;;;;;;4.50;99.90;;;;;;5003799;28;19960;-67
2023/04/10 00:29:22;;;;;;;;;;;4.50;99.90;;;;;;5004274;28;19929;-67
2023/04/10 00:31:49;;;;;;;;;;;4.40;99.90;;;;;;5004243;28;19990;-67
2023/04/10 00:34:16;;;;;;;;;;;4.40;99.90;;;;;;5003912;28;20260;-67
2023/04/10 00:36:42;;;;;;;;;;;4.40;99.90;;;;;;5003730;28;20233;-67
2023/04/10 00:39:11;;;;;;;;;;;4.30;99.90;;;;;;5004253;28;19953;-67
2023/04/10 00:41:38;;;;;;;;;;;4.30;99.90;;;;;;5003860;28;19928;-68
2023/04/10 00:44:04;;;;;;;;;;;4.30;99.90;;;;;;5003731;28;19989;-67
2023/04/10 00:46:33;;;;;;;;;;;4.30;99.90;;;;;;5003878;28;20174;-67
2023/04/10 00:49:00;;;;;;;;;;;4.20;99.90;;;;;;5003600;28;19922;-67
2023/04/10 00:51:27;;;;;;;;;;;4.20;99.90;;;;;;5003970;28;19921;-67
2023/04/10 00:53:54;;;;;;;;;;;4.10;99.90;;;;;;5004044;28;19929;-67
2023/04/10 00:56:23;;;;;;;;;;;4.10;99.90;;;;;;5003777;28;19921;-68
2023/04/10 00:58:50;;;;;;;;;;;4.10;99.90;;;;;;5003662;28;19921;-67
2023/04/10 01:01:16;;;;;;;;;;;4.10;99.90;;;;;;5003978;28;19964;-67
2023/04/10 01:03:43;;;;;;;;;;;4.10;99.90;;;;;;5003582;28;20305;-68
2023/04/10 01:06:14;;;;;;;;;;;4.10;99.90;;;;;;5003763;28;19980;-67
2023/04/10 01:08:45;;;;;;;;;;;4.00;99.90;;;;;;5003843;28;19989;-68
2023/04/10 01:11:18;;;;;;;;;;;3.90;99.90;;;;;;5003665;28;19945;-67
2023/04/10 01:13:49;;;;;;;;;;;3.90;99.90;;;;;;5003518;28;19922;-68
2023/04/10 01:16:18;;;;;;;;;;;3.80;99.90;;;;;;5003352;28;19992;-68
2023/04/10 01:18:46;;;;;;;;;;;3.70;99.90;;;;;;5003889;28;19953;-67
2023/04/10 01:21:14;;;;;;;;;;;3.70;99.90;;;;;;5003459;28;20232;-67
2023/04/10 01:23:51;;;;;;;;;;;3.70;99.90;;;;;;5003409;28;20236;-68
2023/04/10 01:26:24;;;;;;;;;;;3.60;99.90;;;;;;5003220;28;20260;-67
2023/04/10 01:28:54;;;;;;;;;;;3.60;99.90;;;;;;5003768;28;19953;-68
2023/04/10 01:31:23;;;;;;;;;;;3.50;99.90;;;;;;5003653;28;19928;-67
2023/04/10 01:33:52;;;;;;;;;;;3.50;99.90;;;;;;5003680;28;19922;-67
2023/04/10 01:36:21;;;;;;;;;;;3.60;99.90;;;;;;5003130;28;19922;-68
2023/04/10 01:38:48;;;;;;;;;;;3.50;99.90;;;;;;5003606;28;19926;-67
2023/04/10 01:41:16;;;;;;;;;;;3.40;99.90;;;;;;5003328;28;19989;-67
2023/04/10 01:43:42;;;;;;;;;;;3.40;99.90;;;;;;5003257;28;19984;-68
2023/04/10 01:46:12;;;;;;;;;;;3.40;99.90;;;;;;5003101;28;20128;-68
2023/04/10 01:48:38;;;;;;;;;;;3.30;99.90;;;;;;5003206;28;19922;-68
2023/04/10 01:51:07;;;;;;;;;;;3.20;99.90;;;;;;5003499;28;19937;-67
2023/04/10 01:53:35;;;;;;;;;;;3.20;99.90;;;;;;5003366;28;19921;-67
2023/04/10 01:56:02;;;;;;;;;;;3.20;99.90;;;;;;5003012;28;20236;-67
2023/04/10 01:58:30;;;;;;;;;;;3.10;99.90;;;;;;5003210;28;19922;-67
2023/04/10 02:00:56;;;;;;;;;;;3.10;99.90;;;;;;5005415;28;19989;-67
2023/04/10 02:03:24;;;;;;;;;;;3.10;99.90;;;;;;5006681;28;19957;-67
2023/04/10 02:05:54;;;;;;;;;;;3.10;99.90;;;;;;5007262;28;19922;-68
2023/04/10 02:08:24;;;;;;;;;;;3.00;99.90;;;;;;5006859;28;19928;-67
2023/04/10 02:10:54;;;;;;;;;;;3.00;99.90;;;;;;5006736;28;19965;-67
2023/04/10 02:13:21;;;;;;;;;;;3.00;99.90;;;;;;5006753;28;19922;-67
2023/04/10 02:15:50;;;;;;;;;;;3.00;99.90;;;;;;5006510;28;19922;-67
2023/04/10 02:18:17;;;;;;;;;;;2.90;99.90;;;;;;5006430;28;19922;-67
2023/04/10 02:20:45;;;;;;;;;;;2.90;99.90;;;;;;5007103;28;19981;-66
2023/04/10 02:23:12;;;;;;;;;;;2.90;99.90;;;;;;5006616;28;20135;-67
2023/04/10 02:25:39;;;;;;;;;;;2.90;99.90;;;;;;5006488;28;19922;-68
2023/04/10 02:28:06;;;;;;;;;;;2.90;99.90;;;;;;5006328;28;19922;-68
2023/04/10 02:30:33;;;;;;;;;;;2.80;99.90;;;;;;5006096;28;19928;-67
2023/04/10 02:32:59;;;;;;;;;;;2.80;99.90;;;;;;5006357;28;19922;-67
2023/04/10 02:35:28;;;;;;;;;;;2.80;99.90;;;;;;5006112;28;19922;-67
2023/04/10 02:37:55;;;;;;;;;;;2.80;99.90;;;;;;5006099;28;20114;-67
2023/04/10 02:40:22;;;;;;;;;;;2.80;99.90;;;;;;5005948;28;19993;-67
2023/04/10 02:42:49;;;;;;;;;;;2.80;99.90;;;;;;5005956;28;19980;-68
2023/04/10 02:45:16;;;;;;;;;;;2.70;99.90;;;;;;5006192;28;19926;-68
2023/04/10 02:47:43;;;;;;;;;;;2.70;99.90;;;;;;5005577;28;20168;-67
2023/04/10 02:50:10;;;;;;;;;;;2.70;99.90;;;;;;5006058;28;20161;-67
2023/04/10 02:52:36;;;;;;;;;;;2.70;99.90;;;;;;5005635;28;20330;-67
2023/04/10 02:55:05;;;;;;;;;;;2.70;99.90;;;;;;5006014;28;20001;-67
2023/04/10 02:57:31;;;;;;;;;;;2.60;99.90;;;;;;5005442;28;20206;-67
2023/04/10 02:59:58;;;;;;;;;;;2.60;99.90;;;;;;5005970;28;20000;-68
2023/04/10 03:02:25;;;;;;;;;;;2.60;99.90;;;;;;5005884;28;19960;-68
2023/04/10 03:04:52;;;;;;;;;;;2.60;99.90;;;;;;5005552;28;20137;-67
2023/04/10 03:07:18;;;;;;;;;;;2.50;99.90;;;;;;5005440;28;19921;-67
2023/04/10 03:09:45;;;;;;;;;;;2.50;99.90;;;;;;5005485;28;19960;-67
2023/04/10 03:12:13;;;;;;;;;;;2.40;99.90;;;;;;5005168;28;19993;-68
2023/04/10 03:14:40;;;;;;;;;;;2.50;99.90;;;;;;5005660;28;20095;-67
2023/04/10 03:17:06;;;;;;;;;;;2.40;99.90;;;;;;5005427;28;19993;-68
2023/04/10 03:19:33;;;;;;;;;;;2.40;99.90;;;;;;5005324;28;20174;-67
2023/04/10 03:22:00;;;;;;;;;;;2.40;99.90;;;;;;5005429;28;19986;-67
2023/04/10 03:24:27;;;;;;;;;;;2.40;99.90;;;;;;5005246;28;19957;-68
2023/04/10 03:26:55;;;;;;;;;;;2.30;99.90;;;;;;5005154;28;19922;-67
2023/04/10 03:29:23;;;;;;;;;;;2.30;99.90;;;;;;5005380;28;19928;-68
2023/04/10 03:31:50;;;;;;;;;;;2.20;99.90;;;;;;5005222;28;19968;-67
2023/04/10 03:34:17;;;;;;;;;;;2.30;99.90;;;;;;5005299;28;19997;-67
2023/04/10 03:36:43;;;;;;;;;;;2.30;99.90;;;;;;5005113;28;20252;-68
2023/04/10 03:39:10;;;;;;;;;;;2.20;99.90;;;;;;5004992;28;20504;-67
2023/04/10 03:41:37;;;;;;;;;;;2.20;99.90;;;;;;5005149;28;19989;-67
2023/04/10 03:44:03;;;;;;;;;;;2.20;99.90;;;;;;5004613;28;19989;-68
2023/04/10 03:46:31;;;;;;;;;;;2.20;99.90;;;;;;5004825;28;19921;-68
2023/04/10 03:48:58;;;;;;;;;;;2.20;99.90;;;;;;5005037;28;19945;-67
2023/04/10 03:51:25;;;;;;;;;;;2.20;99.90;;;;;;5004896;28;19993;-68
2023/04/10 03:53:52;;;;;;;;;;;2.20;99.90;;;;;;5004662;28;20210;-68
2023/04/10 03:56:19;;;;;;;;;;;2.20;99.90;;;;;;5004689;28;19922;-67
2023/04/10 03:58:45;;;;;;;;;;;2.10;99.90;;;;;;5004859;28;19956;-67
2023/04/10 04:01:12;;;;;;;;;;;2.10;99.90;;;;;;5004763;28;19972;-68
2023/04/10 04:03:40;;;;;;;;;;;2.10;99.90;;;;;;5004669;28;19972;-67
2023/04/10 04:06:07;;;;;;;;;;;2.00;99.90;;;;;;5004218;28;20154;-68
2023/04/10 04:08:35;;;;;;;;;;;2.00;99.90;;;;;;5004613;28;19928;-67
2023/04/10 04:11:01;;;;;;;;;;;2.00;99.90;;;;;;5004664;28;19961;-67
2023/04/10 04:13:28;;;;;;;;;;;2.00;99.90;;;;;;5004297;28;19953;-67
2023/04/10 04:15:54;;;;;;;;;;;2.00;99.90;;;;;;5004215;28;19964;-68
2023/04/10 04:18:21;;;;;;;;;;;2.00;99.90;;;;;;5004060;28;20232;-67
2023/04/10 04:20:49;;;;;;;;;;;1.90;99.90;;;;;;5004222;28;19957;-68
2023/04/10 04:23:16;;;;;;;;;;;1.90;99.90;;;;;;5003691;28;19957;-68
2023/04/10 04:25:43;;;;;;;;;;;1.90;99.90;;;;;;5004304;28;19922;-67
2023/04/10 04:28:12;;;;;;;;;;;1.90;99.90;;;;;;5003919;28;19922;-68
2023/04/10 04:30:39;;;;;;;;;;;1.90;99.90;;;;;;5004245;28;20093;-67
2023/04/10 04:33:05;;;;;;;;;;;1.90;99.90;;;;;;5004182;28;19922;-67
2023/04/10 04:35:32;;;;;;;;;;;1.80;99.90;;;;;;5004195;28;19993;-68
2023/04/10 04:38:00;;;;;;;;;;;1.80;99.90;;;;;;5004054;28;19985;-67
2023/04/10 04:40:27;;;;;;;;;;;1.80;99.90;;;;;;5004134;28;20098;-68
2023/04/10 04:42:53;;;;;;;;;;;1.80;99.90;;;;;;5003689;28;19957;-67
2023/04/10 04:45:20;;;;;;;;;;;1.70;99.90;;;;;;5004122;28;19928;-67
2023/04/10 04:47:47;;;;;;;;;;;1.80;99.90;;;;;;5003837;28;19922;-68
2023/04/10 04:50:13;;;;;;;;;;;1.70;99.90;;;;;;5004122;28;19969;-67
2023/04/10 04:52:40;;;;;;;;;;;1.70;99.90;;;;;;5003892;28;20170;-68
2023/04/10 04:55:09;;;;;;;;;;;1.70;99.90;;;;;;5004101;28;19984;-67
2023/04/10 04:57:35;;;;;;;;;;;1.60;99.90;;;;;;5003526;28;19985;-67
2023/04/10 05:00:02;;;;;;;;;;;1.60;99.90;;;;;;5003991;28;20028;-67
2023/04/10 05:02:31;;;;;;;;;;;1.60;99.90;;;;;;5003952;28;19960;-67
2023/04/10 05:04:57;;;;;;;;;;;1.60;99.90;;;;;;5003828;28;20110;-67
2023/04/10 05:07:24;;;;;;;;;;;1.60;99.90;;;;;;5003754;28;20001;-67
2023/04/10 05:09:51;;;;;;;;;;;1.60;99.90;;;;;;5003921;28;19988;-67
2023/04/10 05:12:19;;;;;;;;;;;1.60;99.90;;;;;;5003743;28;19968;-67
2023/04/10 05:14:46;;;;;;;;;;;1.70;99.90;;;;;;5003946;28;19928;-67
2023/04/10 05:17:13;;;;;;;;;;;1.60;99.90;;;;;;5003663;28;19965;-67
2023/04/10 05:19:40;;;;;;;;;;;1.70;99.90;;;;;;5003858;28;19922;-67
2023/04/10 05:22:07;;;;;;;;;;;1.70;99.90;;;;;;5003701;28;19953;-67
2023/04/10 05:24:33;;;;;;;;;;;1.70;99.90;;;;;;5003824;28;19956;-67
2023/04/10 05:27:00;;;;;;;;;;;1.80;99.90;;;;;;5003288;28;20257;-67
2023/04/10 05:29:28;;;;;;;;;;;1.80;99.90;;;;;;5003784;28;19921;-68
2023/04/10 05:31:56;;;;;;;;;;;1.80;99.90;;;;;;5004208;28;19922;-67
2023/04/10 05:34:23;;;;;;;;;;;1.90;99.90;;;;;;5005834;28;19989;-67
2023/04/10 05:36:49;;;;;;;;;;;2.00;99.90;;;;;;5007438;28;19993;-67
2023/04/10 05:39:16;;;;;;;;;;;2.00;99.90;;;;;;5007600;28;20173;-67
2023/04/10 05:41:42;;;;;;;;;;;2.00;99.90;;;;;;5007433;28;19929;-67
2023/04/10 05:44:09;;;;;;;;;;;2.10;99.90;;;;;;5007332;28;19997;-67
2023/04/10 05:46:37;;;;;;;;;;;2.20;99.90;;;;;;5007126;28;19960;-66
2023/04/10 05:49:04;;;;;;;;;;;2.20;99.90;;;;;;5007205;28;19988;-67
2023/04/10 05:51:30;;;;;;;;;;;2.30;99.90;;;;;;5006914;28;19992;-67
2023/04/10 05:53:57;;;;;;;;;;;2.40;99.90;;;;;;5007203;28;19921;-67
2023/04/10 05:56:24;;;;;;;;;;;2.40;99.90;;;;;;5006494;28;20260;-67
2023/04/10 05:58:51;;;;;;;;;;;2.50;99.90;;;;;;5007192;28;19922;-67
2023/04/10 06:01:18;;;;;;;;;;;2.50;99.90;;;;;;5006181;28;19980;-65
2023/04/10 06:03:46;;;;;;;;;;;2.60;99.90;;;;;;5006912;28;19989;-67
2023/04/10 06:06:13;;;;;;;;;;;2.70;99.90;;;;;;5006740;28;19964;-67
2023/04/10 06:08:40;;;;;;;;;;;2.70;99.90;;;;;;5006960;28;19984;-67
2023/04/10 06:11:06;;;;;;;;;;;2.80;99.90;;;;;;5006484;28;19980;-68
2023/04/10 06:13:33;;;;;;;;;;;2.80;99.90;;;;;;5006592;28;19929;-67
2023/04/10 06:16:00;;;;;;;;;;;2.90;99.90;;;;;;5006263;28;20230;-67
2023/04/10 06:18:26;;;;;;;;;;;2.90;99.90;;;;;;5006218;28;19930;-68
2023/04/10 06:20:55;;;;;;;;;;;3.00;99.90;;;;;;5006580;28;19921;-68
2023/04/10 06:23:22;;;;;;;;;;;3.10;99.90;;;;;;5006496;28;19960;-67
2023/04/10 06:25:48;;;;;;;;;;;3.20;99.90;;;;;;5006427;28;20175;-67
2023/04/10 06:28:15;;;;;;;;;;;3.40;99.90;;;;;;5006164;28;19928;-67
2023/04/10 06:30:42;;;;;;;;;;;3.50;99.90;;;;;;5006543;28;20168;-67
2023/04/10 06:33:09;;;;;;;;;;;3.70;99.90;;;;;;5005989;28;19996;-68
2023/04/10 06:35:36;;;;;;;;;;;3.80;99.90;;;;;;5006320;28;19944;-67
2023/04/10 06:38:04;;;;;;;;;;;4.00;99.90;;;;;;5006287;28;19922;-67
2023/04/10 06:40:32;;;;;;;;;;;4.10;99.90;;;;;;5006109;28;20231;-67
2023/04/10 06:42:59;;;;;;;;;;;4.20;99.90;;;;;;5005776;28;19968;-67
2023/04/10 06:45:26;;;;;;;;;;;4.20;99.90;;;;;;5005483;28;19929;-67
2023/04/10 06:47:52;;;;;;;;;;;4.30;99.90;;;;;;5005867;28;20142;-68
2023/04/10 06:50:19;;;;;;;;;;;4.40;99.90;;;;;;5006171;28;19964;-67
2023/04/10 06:52:46;;;;;;;;;;;4.50;99.90;;;;;;5005250;28;19989;-68
2023/04/10 06:55:14;;;;;;;;;;;4.60;99.90;;;;;;5006054;28;19922;-68
2023/04/10 06:57:40;;;;;;;;;;;4.70;99.90;;;;;;5005786;28;20121;-68
2023/04/10 07:00:08;;;;;;;;;;;4.70;99.90;;;;;;5005958;28;19922;-68
2023/04/10 07:02:35;;;;;;;;;;;4.80;99.90;;;;;;5004919;28;19960;-68
2023/04/10 07:05:01;;;;;;;;;;;4.90;99.90;;;;;;5005854;28;20098;-68
2023/04/10 07:07:28;;;;;;;;;;;5.00;99.90;;;;;;5005372;28;19964;-67
2023/04/10 07:09:56;;;;;;;;;;;5.10;99.90;;;;;;5005791;28;19922;-68
2023/04/10 07:12:25;;;;;;;;;;;5.20;99.90;;;;;;5005274;28;19945;-68
2023/04/10 07:14:52;;;;;;;;;;;5.40;99.90;;;;;;5005911;28;19929;-69
2023/04/10 07:17:18;;;;;;;;;;;5.60;99.90;;;;;;5005115;28;19976;-68
2023/04/10 07:19:45;;;;;;;;;;;5.70;99.90;;;;;;5005331;28;20260;-68
2023/04/10 07:22:12;;;;;;;;;;;5.80;99.90;;;;;;5005134;28;19953;-68
2023/04/10 07:24:38;;;;;;;;;;;6.00;99.90;;;;;;5005195;28;19957;-68
2023/04/10 07:27:05;;;;;;;;;;;6.10;99.90;;;;;;5005189;28;19985;-68
2023/04/10 07:29:33;;;;;;;;;;;6.30;99.90;;;;;;5004955;28;20174;-68
2023/04/10 07:31:59;;;;;;;;;;;6.50;99.90;;;;;;5004946;28;19922;-68
2023/04/10 07:34:26;;;;;;;;;;;6.50;99.90;;;;;;5004949;28;20213;-69
2023/04/10 07:36:53;;;;;;;;;;;6.70;99.90;;;;;;5004837;28;19964;-68
2023/04/10 07:39:19;;;;;;;;;;;6.80;99.90;;;;;;5005251;28;19969;-68
2023/04/10 07:41:46;;;;;;;;;;;7.10;99.90;;;;;;5004790;28;19922;-68
2023/04/10 07:44:13;;;;;;;;;;;7.20;99.90;;;;;;5005009;28;19964;-69
2023/04/10 07:46:43;;;;;;;;;;;7.40;99.90;;;;;;5003914;28;19922;-68
2023/04/10 07:49:10;;;;;;;;;;;7.50;99.90;;;;;;5005069;28;19921;-68
2023/04/10 07:51:37;;;;;;;;;;;7.60;99.90;;;;;;5004956;28;20125;-68
2023/04/10 07:54:04;;;;;;;;;;;7.80;99.90;;;;;;5003759;28;19922;-68
2023/04/10 07:56:31;;;;;;;;;;;7.90;99.90;;;;;;5004355;28;20121;-68
2023/04/10 07:58:59;;;;;;;;;;;8.00;99.90;;;;;;5004847;28;19988;-67
2023/04/10 08:01:26;;;;;;;;;;;8.10;99.90;;;;;;5004478;28;19988;-68
2023/04/10 08:03:54;;;;;;;;;;;8.20;99.90;;;;;;5004449;28;19925;-68
2023/04/10 08:06:21;;;;;;;;;;;8.40;99.90;;;;;;5004060;28;19922;-68
2023/04/10 08:08:48;;;;;;;;;;;8.40;99.90;;;;;;5004768;28;19929;-68
2023/04/10 08:11:25;;;;;;;;;;;8.50;99.90;;;;;;5004501;28;19922;-68
2023/04/10 08:13:52;;;;;;;;;;;8.60;99.90;;;;;;5004536;28;19921;-69
2023/04/10 08:16:19;;;;;;;;;;;8.70;99.90;;;;;;5004109;28;19928;-68
2023/04/10 08:18:46;;;;;;;;;;;8.80;99.90;;;;;;5004553;28;19922;-68
2023/04/10 08:21:14;;;;;;;;;;;8.80;99.90;;;;;;5004186;28;19960;-68
2023/04/10 08:23:40;;;;;;;;;;;8.90;99.90;;;;;;5004381;28;19984;-68
2023/04/10 08:26:07;;;;;;;;;;;8.90;99.90;;;;;;5003919;28;19993;-68
2023/04/10 08:28:35;;;;;;;;;;;8.90;99.90;;;;;;5004216;28;19945;-67
2023/04/10 08:31:01;;;;;;;;;;;9.00;99.90;;;;;;5004381;28;19930;-69
2023/04/10 08:33:28;;;;;;;;;;;9.10;99.90;;;;;;5004113;28;19928;-68
2023/04/10 08:35:55;;;;;;;;;;;9.10;99.90;;;;;;5003828;28;19922;-68
2023/04/10 08:38:23;;;;;;;;;;;9.30;99.90;;;;;;5004183;28;19953;-68
2023/04/10 08:40:50;;;;;;;;;;;9.30;99.90;;;;;;5003868;28;20276;-68
2023/04/10 08:43:17;;;;;;;;;;;9.40;99.90;;;;;;5004026;28;19928;-69
2023/04/10 08:45:45;;;;;;;;;;;9.50;99.90;;;;;;5002976;28;19930;-69
2023/04/10 08:48:13;;;;;;;;;;;9.50;99.90;;;;;;5003754;28;19922;-68
2023/04/10 08:50:41;;;;;;;;;;;9.60;99.90;;;;;;5004061;28;19922;-68
2023/04/10 08:53:10;;;;;;;;;;;9.80;99.90;;;;;;5002889;28;19976;-68
2023/04/10 08:55:38;;;;;;;;;;;9.80;99.90;;;;;;5003927;28;19928;-68
2023/04/10 08:58:05;;;;;;;;;;;9.90;99.90;;;;;;5003906;28;19954;-68
2023/04/10 09:00:33;;;;;;;;;;;9.90;99.90;;;;;;5004006;28;19948;-68
2023/04/10 09:03:01;;;;;;;;;;;10.00;99.90;;;;;;5003942;28;19985;-68
2023/04/10 09:05:28;;;;;;;;;;;10.10;99.90;;;;;;5003842;28;19926;-68
2023/04/10 09:07:55;;;;;;;;;;;10.10;99.90;;;;;;5003785;28;19929;-69
2023/04/10 09:10:21;;;;;;;;;;;10.20;99.90;;;;;;5006769;28;20141;-69
2023/04/10 09:12:49;;;;;;;;;;;10.30;99.90;;;;;;5007774;28;19922;-69
2023/04/10 09:15:16;;;;;;;;;;;10.30;99.90;;;;;;5007629;28;19921;-68
2023/04/10 09:17:56;;;;;;;;;;;10.40;99.90;;;;;;5007662;28;19993;-68
2023/04/10 09:20:23;;;;;;;;;;;10.50;99.90;;;;;;5007576;28;20284;-68
2023/04/10 09:22:50;;;;;;;;;;;10.50;99.90;;;;;;5007761;28;19989;-68
2023/04/10 09:25:30;;;;;;;;;;;10.60;99.90;;;;;;5007449;28;19953;-67
2023/04/10 09:28:01;;;;;;;;;;;10.70;99.90;;;;;;5007459;28;19925;-68
2023/04/10 09:30:33;;;;;;;;;;;10.90;99.90;;;;;;5007648;28;19922;-68
2023/04/10 09:32:59;;;;;;;;;;;10.90;99.90;;;;;;5007511;28;19945;-68
2023/04/10 09:35:34;;;;;;;;;;;11.00;99.90;;;;;;5007434;28;19922;-68
2023/04/10 09:38:01;;;;;;;;;;;11.10;99.90;;;;;;5007094;28;19921;-68
2023/04/10 09:40:27;;;;;;;;;;;11.20;99.90;;;;;;5007164;28;19960;-69
2023/04/10 09:42:55;;;;;;;;;;;11.20;99.90;;;;;;5007241;28;19953;-68
2023/04/10 09:45:23;;;;;;;;;;;11.30;99.90;;;;;;5007527;28;19922;-68
2023/04/10 09:48:03;;;;;;;;;;;11.40;99.90;;;;;;5006810;28;19922;-68
2023/04/10 09:50:34;;;;;;;;;;;11.50;99.90;;;;;;5006984;28;20228;-68
2023/04/10 09:53:00;;;;;;;;;;;11.50;99.90;;;;;;5006366;28;19928;-68
2023/04/10 09:55:28;;;;;;;;;;;11.60;99.90;;;;;;5007242;28;19922;-68
2023/04/10 09:57:55;;;;;;;;;;;11.60;99.90;;;;;;5006882;28;20142;-68
2023/04/10 10:00:21;;;;;;;;;;;11.70;99.90;;;;;;5007020;28;19972;-68
2023/04/10 10:02:50;;;;;;;;;;;11.80;99.90;;;;;;5006953;28;19929;-68
2023/04/10 10:05:16;;;;;;;;;;;11.90;99.90;;;;;;5006747;28;19991;-68
2023/04/10 10:07:44;;;;;;;;;;;12.10;99.90;;;;;;5006662;28;19922;-68
2023/04/10 10:10:11;;;;;;;;;;;12.20;99.90;;;;;;5006690;28;20153;-68
2023/04/10 10:12:43;;;;;;;;;;;12.30;99.90;;;;;;5006594;28;20012;-68
2023/04/10 10:15:12;;;;;;;;;;;12.40;99.90;;;;;;5006846;28;19984;-68
2023/04/10 10:17:41;;;;;;;;;;;12.50;99.90;;;;;;5006505;28;19921;-68
2023/04/10 10:20:10;;;;;;;;;;;12.70;99.90;;;;;;5006205;28;19956;-68
2023/04/10 10:22:37;;;;;;;;;;;12.90;99.90;;;;;;5005662;28;20210;-68
2023/04/10 10:25:04;;;;;;;;;;;13.00;99.90;;;;;;5006652;28;19928;-68
2023/04/10 10:27:31;;;;;;;;;;;13.10;99.90;;;;;;5005996;28;19930;-68
2023/04/10 10:29:59;;;;;;;;;;;13.20;99.90;;;;;;5006577;28;20145;-68
2023/04/10 10:32:26;;;;;;;;;;;13.30;99.90;;;;;;5006348;28;19989;-68
2023/04/10 10:34:53;;;;;;;;;;;13.40;99.90;;;;;;5006389;28;20001;-68
2023/04/10 10:37:21;;;;;;;;;;;13.50;99.90;;;;;;5006219;28;19953;-68
2023/04/10 10:39:52;;;;;;;;;;;13.60;99.90;;;;;;5006277;28;19928;-68
2023/04/10 10:42:22;;;;;;;;;;;13.70;99.90;;;;;;5006189;28;19928;-69
2023/04/10 10:44:52;;;;;;;;;;;13.80;99.90;;;;;;5006246;28;19989;-68
2023/04/10 10:47:22;;;;;;;;;;;13.90;99.90;;;;;;5005432;28;20277;-68
2023/04/10 10:49:52;;;;;;;;;;;14.00;99.90;;;;;;5006022;28;19984;-68
2023/04/10 10:52:34;;;;;;;;;;;14.10;99.90;;;;;;5005227;28;19983;-68
2023/04/10 10:55:22;;;;;;;;;;;14.30;99.90;;;;;;5005549;28;19960;-68
2023/04/10 10:57:50;;;;;;;;;;;14.50;99.90;;;;;;5005437;28;19929;-68
2023/04/10 11:00:17;;;;;;;;;;;14.60;99.90;;;;;;5006063;28;19929;-69
2023/04/10 11:02:44;;;;;;;;;;;14.60;99.90;;;;;;5005744;28;19922;-69
2023/04/10 11:05:10;;;;;;;;;;;14.70;99.90;;;;;;5005910;28;19921;-68
2023/04/10 11:08:07;;;;;;;;;;;14.80;99.90;;;;;;5005374;28;19997;-68
2023/04/10 11:10:52;;;;;;;;;;;14.90;99.90;;;;;;4964903;29;19922;-68
2023/04/10 11:13:20;;;;;;;;;;;15.00;99.90;;;;;;5000771;28;19922;-68
2023/04/10 11:15:51;;;;;;;;;;;14.90;99.90;;;;;;5005318;28;19928;-68
2023/04/10 11:18:19;;;;;;;;;;;15.00;99.90;;;;;;5005329;28;19921;-69
2023/04/10 11:21:01;;;;;;;;;;;15.10;99.90;;;;;;5005374;28;19988;-68
2023/04/10 11:23:27;;;;;;;;;;;15.20;99.90;;;;;;5004494;28;19993;-68
2023/04/10 11:25:54;;;;;;;;;;;15.40;99.90;;;;;;5005347;28;19922;-68
2023/04/10 11:28:42;;;;;;;;;;;15.60;99.90;;;;;;5004948;28;19922;-68
2023/04/10 11:31:18;;;;;;;;;;;15.80;99.90;;;;;;5001749;28;19928;-69
2023/04/10 11:33:45;;;;;;;;;;;16.00;99.90;;;;;;5004950;28;19922;-69
2023/04/10 11:36:14;;;;;;;;;;;16.20;99.90;;;;;;5005048;28;19985;-69
2023/04/10 11:38:40;;;;;;;;;;;16.30;99.90;;;;;;5005214;28;20118;-68
2023/04/10 11:41:07;;;;;;;;;;;16.20;99.90;;;;;;5005238;28;20181;-68
2023/04/10 11:43:34;;;;;;;;;;;16.20;99.90;;;;;;5005031;28;19922;-68
2023/04/10 11:46:04;;;;;;;;;;;16.30;99.90;;;;;;5004052;28;19968;-68
2023/04/10 11:48:32;;;;;;;;;;;16.30;99.90;;;;;;5004795;28;20099;-68
2023/04/10 11:51:00;;;;;;;;;;;16.50;99.90;;;;;;5004980;28;19957;-68
2023/04/10 11:53:28;;;;;;;;;;;16.60;99.90;;;;;;5004800;28;19929;-68
2023/04/10 11:55:55;;;;;;;;;;;16.70;99.90;;;;;;5004473;28;19977;-68
2023/04/10 11:58:22;;;;;;;;;;;17.00;99.90;;;;;;4985343;28;19922;-68
2023/04/10 12:00:55;;;;;;;;;;;17.20;99.90;;;;;;4985382;28;20210;-69
2023/04/10 12:03:32;;;;;;;;;;;17.30;99.90;;;;;;4985116;28;20235;-68
2023/04/10 12:05:59;;;;;;;;;;;17.30;99.90;;;;;;4985163;28;19984;-68
2023/04/10 12:08:30;;;;;;;;;;;17.20;99.90;;;;;;4984737;28;19922;-68
2023/04/10 12:10:57;;;;;;;;;;;17.00;99.90;;;;;;4985014;28;19989;-68
2023/04/10 12:13:26;;;;;;;;;;;16.90;99.90;;;;;;4985063;28;19922;-68
2023/04/10 12:15:53;;;;;;;;;;;16.90;99.90;;;;;;4984982;28;19953;-68
2023/04/10 12:18:20;;;;;;;;;;;17.00;99.90;;;;;;4984642;28;19922;-68
2023/04/10 12:20:50;;;;;;;;;;;17.20;99.90;;;;;;4984727;28;20214;-69
2023/04/10 12:23:17;;;;;;;;;;;17.50;99.90;;;;;;4984961;28;19988;-69
2023/04/10 12:25:44;;;;;;;;;;;17.60;99.90;;;;;;4984495;28;19922;-68
2023/04/10 12:28:16;;;;;;;;;;;17.70;99.90;;;;;;4984917;28;19985;-68
2023/04/10 12:30:46;;;;;;;;;;;17.80;99.90;;;;;;4985037;28;19953;-68
2023/04/10 12:33:12;;;;;;;;;;;17.60;99.90;;;;;;4984478;28;19922;-68
2023/04/10 12:35:39;;;;;;;;;;;17.60;99.90;;;;;;4995992;28;19980;-69
2023/04/10 12:38:07;;;;;;;;;;;17.80;99.90;;;;;;5003856;28;20232;-69
2023/04/10 12:40:34;;;;;;;;;;;17.90;99.90;;;;;;5004264;28;20095;-69
2023/04/10 12:43:01;;;;;;;;;;;18.10;99.90;;;;;;5003942;28;19921;-68
2023/04/10 12:45:41;;;;;;;;;;;18.30;99.90;;;;;;5003668;28;19922;-69
2023/04/10 12:48:08;;;;;;;;;;;18.60;99.90;;;;;;5004130;28;19945;-68
2023/04/10 12:50:45;;;;;;;;;;;18.70;98.20;;;;;;5004071;28;19976;-68
2023/04/10 12:53:14;;;;;;;;;;;18.80;98.80;;;;;;5003189;28;19984;-68
2023/04/10 12:55:41;;;;;;;;;;;18.90;97.90;;;;;;5003978;28;19984;-68
2023/04/10 12:58:18;;;;;;;;;;;18.50;96.30;;;;;;5003559;28;19984;-68
2023/04/10 13:00:45;;;;;;;;;;;17.70;96.30;;;;;;5003756;28;20228;-68
2023/04/10 13:03:12;;;;;;;;;;;17.40;99.20;;;;;;5003563;28;19949;-68
2023/04/10 13:05:38;;;;;;;;;;;17.50;99.50;;;;;;5003727;28;19988;-69
2023/04/10 13:08:05;;;;;;;;;;;17.70;98.10;;;;;;5003742;28;19968;-68
2023/04/10 13:10:36;;;;;;;;;;;17.90;98.20;;;;;;5003735;28;19964;-68
2023/04/10 13:13:02;;;;;;;;;;;18.30;97.50;;;;;;5003986;28;19922;-69
2023/04/10 13:15:29;;;;;;;;;;;18.50;98.80;;;;;;5003710;28;19984;-69
2023/04/10 13:17:55;;;;;;;;;;;18.80;98.10;;;;;;5003334;28;19977;-66
2023/04/10 13:20:22;;;;;;;;;;;19.00;98.50;;;;;;5003626;28;19964;-67
2023/04/10 13:22:49;;;;;;;;;;;19.20;96.00;;;;;;5003757;28;19985;-66
2023/04/10 13:25:15;;;;;;;;;;;19.20;96.10;;;;;;5003716;28;20110;-66
2023/04/10 13:27:43;;;;;;;;;;;19.50;96.10;;;;;;5003573;28;19953;-67
2023/04/10 13:30:10;;;;;;;;;;;19.60;94.40;;;;;;5003677;28;19993;-66
2023/04/10 13:32:37;;;;;;;;;;;19.70;94.50;;;;;;5003463;28;19921;-66
2023/04/10 13:35:03;;;;;;;;;;;19.80;93.40;;;;;;5003477;28;19997;-66
2023/04/10 13:37:30;;;;;;;;;;;19.80;93.70;;;;;;5003124;28;19928;-66
2023/04/10 13:39:57;;;;;;;;;;;19.90;93.30;;;;;;5003762;28;19957;-66
2023/04/10 13:42:23;;;;;;;;;;;19.90;92.20;;;;;;5003578;28;19953;-67
2023/04/10 13:44:51;;;;;;;;;;;19.90;92.30;;;;;;5003226;28;20125;-67
2023/04/10 13:47:18;;;;;;;;;;;20.00;93.20;;;;;;5003181;28;20210;-66
2023/04/10 13:49:45;;;;;;;;;;;20.00;91.70;;;;;;5003357;28;19957;-67
2023/04/10 13:52:12;;;;;;;;;;;20.20;91.40;;;;;;5002800;28;19961;-68
2023/04/10 13:54:39;;;;;;;;;;;20.00;91.50;;;;;;5003673;28;19928;-69
2023/04/10 13:57:06;;;;;;;;;;;20.00;91.90;;;;;;5007014;28;19921;-68
2023/04/10 13:59:32;;;;;;;;;;;19.90;90.20;;;;;;5007223;28;19922;-69
2023/04/10 14:02:00;;;;;;;;;;;19.80;91.20;;;;;;5007198;28;19957;-68
2023/04/10 14:04:27;;;;;;;;;;;19.90;91.20;;;;;;5007030;28;20160;-68
2023/04/10 14:06:57;;;;;;;;;;;19.90;91.90;;;;;;5006695;28;19985;-68
2023/04/10 14:09:24;;;;;;;;;;;19.90;90.90;;;;;;5007019;28;19922;-68
2023/04/10 14:11:50;;;;;;;;;;;19.80;91.30;;;;;;5007028;28;19926;-69
2023/04/10 14:14:17;;;;;;;;;;;19.70;90.20;;;;;;5006824;28;20001;-68
2023/04/10 14:16:44;;;;;;;;;;;19.70;90.00;;;;;;5006543;28;19964;-69
2023/04/10 14:19:12;;;;;;;;;;;19.40;89.30;;;;;;5006775;28;19964;-68
2023/04/10 14:21:39;;;;;;;;;;;19.20;89.40;;;;;;5006698;28;19928;-68
2023/04/10 14:24:06;;;;;;;;;;;19.20;90.60;;;;;;5006673;28;19922;-68
2023/04/10 14:26:33;;;;;;;;;;;19.10;90.70;;;;;;5006304;28;19922;-68
2023/04/10 14:28:59;;;;;;;;;;;19.20;89.70;;;;;;5006670;28;20110;-69
2023/04/10 14:31:26;;;;;;;;;;;19.20;90.30;;;;;;5006323;28;19988;-68